RJCC/CTS METAR and TAF weather

Enter ICAO airport designator
Station Type Date Time Source
RJCC METAR 2019/10/19 06:30 UTC NOAA

RJCC 190630Z 09004KT 350V160 4900 -SHRA BR FEW003 BKN007 BKN011 13/12 Q1016 RMK 1ST003 5ST007 6ST011 A3002


Station Type Date Time Source
RJCC Decoded METAR 2019/10/19 06:30 UTC NOAA

Chitose Ab, Japan (RJCC) 42-48N 141-40E 30M
Oct 19, 2019 - 02:30 AM EDT / 2019.10.19 0630 UTC
Wind: from the E (090 degrees) at 5 MPH (4 KT) (direction variable):0
Visibility: 3 mile(s):0
Sky conditions: mostly cloudy
Weather: light rain showers; mist
Temperature: 55 F (13 C)
Dew Point: 53 F (12 C)
Relative Humidity: 93%
Pressure (altimeter): 30.00 in. Hg (1016 hPa)
ob: RJCC 190630Z 09004KT 350V160 4900 -SHRA BR FEW003 BKN007 BKN011 13/12 Q1016 RMK 1ST003 5ST007 6ST011 A3002
cycle: 6

Station Type Date Time Source
RJCC TAF 2019/10/19 06:30 UTC NOAA

TAF RJCC 190505Z 1906/2012 14012KT 9999 -SHRA FEW005 BKN015
TEMPO 1906/1912 4000 -SHRA BR FEW005 BKN008
TEMPO 1912/1918 3000 SHRA BR FEW003 BKN005 FEW025CB
BECMG 1916/1918 34015KT

Example: see airport list